Time;durP1;ratioP1;P1;durP2;ratioP2;P2;SDS_P1;SDS_P2;PMS_P1;PMS_P2;Temp;Humidity;BMP_temperature;BMP_pressure;BME280_temperature;BME280_humidity;BME280_pressure;Samples;Min_cycle;Max_cycle;Signal;HPM_P1;HPM_P2
2023/06/23 00:00:22;;;;;;;23.13;18.13;;;;;;;-141.97;75.14;47484.47;5034520;28;20255;-80
2023/06/23 00:02:48;;;;;;;26.67;19.33;;;;;;;-141.97;75.56;47526.75;5034941;28;20162;-81
2023/06/23 00:05:14;;;;;;;25.40;19.60;;;;;;;-141.97;75.92;47482.56;5034675;28;20173;-80
2023/06/23 00:07:39;;;;;;;23.20;18.80;;;;;;;-141.97;76.12;47732.44;5034781;28;20555;-80
2023/06/23 00:10:05;;;;;;;25.97;18.03;;;;;;;-141.97;75.86;47526.75;5033790;28;20225;-81
2023/06/23 00:12:35;;;;;;;24.73;18.63;;;;;;;-141.97;76.46;47501.78;5034552;28;20619;-81
2023/06/23 00:15:07;;;;;;;23.20;18.27;;;;;;;-141.97;75.90;47538.28;5034710;28;20162;-79
2023/06/23 00:17:32;;;;;;;24.77;18.60;;;;;;;-141.97;75.67;47740.13;5034437;28;20170;-79
2023/06/23 00:19:58;;;;;;;25.40;18.43;;;;;;;-141.97;75.49;47521.00;5034618;28;20165;-80
2023/06/23 00:22:27;;;;;;;24.57;18.60;;;;;;;-141.97;75.20;47559.44;5036944;28;20202;-78
2023/06/23 00:24:53;;;;;;;21.97;17.77;;;;;;;-141.97;74.74;47544.06;5034703;28;20200;-79
2023/06/23 00:27:19;;;;;;;23.67;18.77;;;;;;;-141.97;74.83;47622.88;5035006;28;20166;-79
2023/06/23 00:29:45;;;;;;;22.97;18.17;;;;;;;-141.97;75.29;47472.94;5034562;28;20190;-78
2023/06/23 00:32:10;;;;;;;25.27;19.00;;;;;;;-141.97;75.43;47494.09;5035107;28;20173;-78
2023/06/23 00:34:36;;;;;;;25.00;19.27;;;;;;;-141.97;75.43;47742.03;5034083;28;20176;-78
2023/06/23 00:37:01;;;;;;;24.83;19.13;;;;;;;-141.97;75.24;47636.31;5034079;28;20181;-78
2023/06/23 00:39:26;;;;;;;24.00;18.67;;;;;;;-141.97;75.57;47519.06;5033750;28;20159;-79
2023/06/23 00:41:53;;;;;;;23.57;19.17;;;;;;;-141.97;76.64;47505.63;5033736;28;20249;-79
2023/06/23 00:44:19;;;;;;;26.27;19.40;;;;;;;-141.97;77.80;47513.31;5034147;28;20166;-79
2023/06/23 00:46:45;;;;;;;28.33;19.47;;;;;;;-141.97;77.24;47515.22;5034209;28;20173;-79
2023/06/23 00:49:14;;;;;;;27.63;20.53;;;;;;;-141.97;76.15;47546.00;5034157;28;20576;-81
2023/06/23 00:51:40;;;;;;;25.27;20.00;;;;;;;-141.97;75.44;47572.91;5034396;28;20544;-80
2023/06/23 00:54:07;;;;;;;24.80;19.53;;;;;;;-141.97;75.62;47474.88;5034299;28;20175;-80
2023/06/23 00:56:33;;;;;;;27.93;20.33;;;;;;;-141.97;75.33;47486.41;5033950;28;20539;-79
2023/06/23 00:58:59;;;;;;;28.27;21.43;;;;;;;-141.97;75.15;47684.38;5033870;28;20166;-79
2023/06/23 01:01:25;;;;;;;25.67;19.33;;;;;;;-141.97;74.85;47472.94;5032675;28;20170;-80
2023/06/23 01:03:51;;;;;;;24.87;19.57;;;;;;;-141.97;75.07;47501.78;5034341;28;20578;-80
2023/06/23 01:06:39;;;;;;;25.27;20.07;;;;;;;-141.97;75.19;47753.56;5033666;28;20162;-79
2023/06/23 01:09:29;;;;;;;26.23;19.20;;;;;;;-141.97;74.87;47538.28;5033291;28;20226;-79
2023/06/23 01:12:29;;;;;;;26.43;19.63;;;;;;;-141.97;74.81;47563.28;5034009;28;20257;-79
2023/06/23 01:15:13;;;;;;;27.80;20.20;;;;;;;-141.97;74.64;47530.59;5034308;28;20602;-79
2023/06/23 01:17:47;;;;;;;27.53;20.30;;;;;;;-141.97;74.81;47534.44;5033544;28;20174;-79
2023/06/23 01:20:20;;;;;;;28.27;20.53;;;;;;;-141.97;74.92;47526.75;5033177;28;20146;-79
2023/06/23 01:23:29;;;;;;;26.87;20.20;;;;;;;-141.97;75.76;47365.31;5032871;28;20268;-78
2023/06/23 01:26:33;;;;;;;28.30;21.30;;;;;;;-141.97;79.15;47540.22;5032708;28;20573;-78
2023/06/23 01:29:07;;;;;;;29.87;21.90;;;;;;;-141.97;82.02;47540.22;4994222;28;20565;-78
2023/06/23 01:31:44;;;;;;;28.37;21.47;;;;;;;-141.97;83.76;47503.69;5010910;28;20169;-79
2023/06/23 01:34:14;;;;;;;31.60;22.40;;;;;;;-141.97;83.89;47519.06;5011100;28;20748;-79
2023/06/23 01:36:49;;;;;;;30.40;22.47;;;;;;;-141.97;84.91;47544.06;5010663;28;20197;-80
2023/06/23 01:39:18;;;;;;;28.40;22.87;;;;;;;-141.97;85.03;47522.91;4995219;28;20209;-79
2023/06/23 01:42:04;;;;;;;32.93;23.73;;;;;;;-141.97;85.39;47526.75;5011679;28;20170;-80
2023/06/23 01:44:31;;;;;;;33.57;24.07;;;;;;;-141.97;84.81;47584.44;5010907;28;20194;-79
2023/06/23 01:46:59;;;;;;;33.43;23.70;;;;;;;-141.97;86.70;47546.00;4994752;28;20194;-80
2023/06/23 01:49:30;;;;;;;34.23;24.63;;;;;;;-141.97;86.99;47563.28;5011162;28;20179;-79
2023/06/23 01:51:56;;;;;;;31.13;23.70;;;;;;;-141.97;86.52;47555.59;5011440;28;20186;-79
2023/06/23 01:54:23;;;;;;;34.53;24.53;;;;;;;-141.97;86.29;47553.69;5011081;28;20177;-79
2023/06/23 01:56:50;;;;;;;32.03;24.23;;;;;;;-141.97;85.65;47567.13;5010980;28;20162;-79
2023/06/23 01:59:18;;;;;;;33.83;25.07;;;;;;;-141.97;85.27;47561.38;5011087;28;20178;-80
2023/06/23 02:01:45;;;;;;;34.43;24.73;;;;;;;-141.97;85.09;47522.91;5011101;28;20247;-79
2023/06/23 02:04:12;;;;;;;32.60;24.60;;;;;;;-141.97;85.06;47603.66;5010587;28;20249;-79
2023/06/23 02:06:39;;;;;;;32.13;24.87;;;;;;;-141.97;84.87;47555.59;5031554;28;20655;-78
2023/06/23 02:09:09;;;;;;;35.40;25.00;;;;;;;-141.97;84.25;47572.91;5033058;28;20598;-79
2023/06/23 02:11:36;;;;;;;37.67;24.90;;;;;;;-141.97;83.90;47546.00;5032807;28;20165;-80
2023/06/23 02:14:03;;;;;;;36.47;23.83;;;;;;;-141.97;83.97;47561.38;5030766;28;20180;-79
2023/06/23 02:16:31;;;;;;;34.37;24.20;;;;;;;-141.97;83.97;47538.28;5031845;28;20162;-80
2023/06/23 02:18:58;;;;;;;35.70;25.10;;;;;;;-141.97;84.24;47544.06;5032210;28;20151;-80
2023/06/23 02:21:26;;;;;;;37.30;26.70;;;;;;;-141.97;84.01;47530.59;5031202;28;20174;-80
2023/06/23 02:23:53;;;;;;;33.57;23.73;;;;;;;-141.97;82.71;47542.16;5032615;28;20166;-79
2023/06/23 02:26:22;;;;;;;31.40;22.87;;;;;;;-141.97;82.82;47522.91;5032315;28;20244;-80
2023/06/23 02:28:50;;;;;;;30.27;23.23;;;;;;;-141.97;82.64;47590.19;5031959;28;20193;-80
2023/06/23 02:31:20;;;;;;;30.50;23.70;;;;;;;-141.97;83.22;47559.44;5032434;28;20166;-81
2023/06/23 02:33:45;;;;;;;34.33;23.30;;;;;;;-141.97;83.13;47474.88;5032388;28;20170;-80
2023/06/23 02:36:12;;;;;;;36.87;24.70;;;;;;;-141.97;83.48;47715.13;5032636;28;20154;-80
2023/06/23 02:38:40;;;;;;;36.37;24.17;;;;;;;-141.97;82.89;47553.69;5032442;28;20634;-80
2023/06/23 02:41:08;;;;;;;32.63;23.70;;;;;;;-141.97;82.88;47549.84;5031197;28;20716;-80
2023/06/23 02:43:40;;;;;;;36.37;24.17;;;;;;;-141.97;83.02;47563.28;5032754;28;20704;-79
2023/06/23 02:46:10;;;;;;;36.70;24.70;;;;;;;-141.97;82.67;47569.06;5032736;28;20157;-79
2023/06/23 02:48:39;;;;;;;34.30;23.37;;;;;;;-141.97;83.02;47453.72;5031809;28;20216;-78
2023/06/23 02:51:08;;;;;;;34.50;23.37;;;;;;;-141.97;82.53;47546.00;5031914;28;20227;-78
2023/06/23 02:53:44;;;;;;;32.50;24.10;;;;;;;-141.97;82.66;47501.78;5031269;28;20173;-79
2023/06/23 02:56:17;;;;;;;30.87;23.40;;;;;;;-141.97;83.63;47559.44;5032048;28;20158;-77
2023/06/23 02:58:47;;;;;;;33.53;24.47;;;;;;;-141.97;84.20;47555.59;5032045;28;20188;-77
2023/06/23 03:01:14;;;;;;;32.13;24.90;;;;;;;-141.97;84.26;47526.75;5031582;28;20173;-77
2023/06/23 03:03:42;;;;;;;34.83;25.83;;;;;;;-141.97;83.60;47549.84;5032261;28;20237;-80
2023/06/23 03:06:22;;;;;;;37.93;23.90;;;;;;;-141.97;83.55;47574.81;5036167;28;20180;-79
2023/06/23 03:08:48;;;;;;;35.97;24.47;;;;;;;-141.97;83.38;47557.53;5037775;28;20225;-79
2023/06/23 03:11:20;;;;;;;34.80;23.63;;;;;;;-141.97;83.23;47538.28;5038446;28;20180;-80
2023/06/23 03:13:47;;;;;;;35.07;23.53;;;;;;;-141.97;83.36;47613.25;5038168;28;20172;-79
2023/06/23 03:16:19;;;;;;;33.53;23.80;;;;;;;-141.97;83.13;47578.66;5038262;28;20629;-80
2023/06/23 03:18:53;;;;;;;34.23;24.40;;;;;;;-141.97;83.71;47594.03;5038601;28;20166;-79
2023/06/23 03:21:21;;;;;;;36.57;24.40;;;;;;;-141.97;84.07;47534.44;5038385;28;20296;-80
2023/06/23 03:23:50;;;;;;;35.00;25.80;;;;;;;-141.97;84.21;47576.75;5038172;28;20315;-81
2023/06/23 03:26:18;;;;;;;38.43;25.17;;;;;;;-141.97;84.46;47736.28;5038172;28;20255;-79
2023/06/23 03:28:46;;;;;;;38.47;25.93;;;;;;;-141.97;84.64;47534.44;5037722;28;20158;-80
2023/06/23 03:31:15;;;;;;;35.33;25.23;;;;;;;-141.97;84.88;47540.22;5037848;28;20189;-80
2023/06/23 03:33:42;;;;;;;36.83;25.67;;;;;;;-141.97;84.18;47578.66;5039032;28;20170;-80
2023/06/23 03:36:11;;;;;;;37.87;26.00;;;;;;;-141.97;83.68;47578.66;5036974;28;20553;-80
2023/06/23 03:38:44;;;;;;;35.67;25.70;;;;;;;-141.97;83.23;47599.81;5037937;28;20177;-79
2023/06/23 03:41:11;;;;;;;39.07;26.83;;;;;;;-141.97;84.29;47711.28;5038108;28;20166;-80
2023/06/23 03:43:48;;;;;;;33.90;25.10;;;;;;;-141.97;84.48;47594.03;5037865;28;20178;-80
2023/06/23 03:46:19;;;;;;;36.33;26.07;;;;;;;-141.97;85.45;47580.59;5037936;28;20180;-79
2023/06/23 03:48:49;;;;;;;35.50;26.23;;;;;;;-141.97;85.20;47565.22;5037897;28;20158;-80
2023/06/23 03:51:18;;;;;;;36.73;26.40;;;;;;;-141.97;84.99;47474.88;5037768;28;20642;-80
2023/06/23 03:53:45;;;;;;;37.77;25.63;;;;;;;-141.97;85.26;47569.06;5037844;28;20200;-80
2023/06/23 03:56:14;;;;;;;35.33;25.43;;;;;;;-141.97;84.67;47557.53;5037944;28;20162;-79
2023/06/23 03:58:41;;;;;;;35.50;25.57;;;;;;;-141.97;84.42;47586.34;5038483;28;20269;-79
2023/06/23 04:01:07;;;;;;;34.23;25.13;;;;;;;-141.97;84.58;47740.13;5036996;28;20631;-79
2023/06/23 04:03:36;;;;;;;33.30;25.53;;;;;;;-141.97;84.25;47553.69;5038868;28;20249;-79
2023/06/23 04:06:05;;;;;;;36.33;24.33;;;;;;;-141.97;83.45;47534.44;5035764;28;20659;-82
2023/06/23 04:08:32;;;;;;;34.97;25.10;;;;;;;-141.97;82.12;47615.19;5060381;28;20221;-81
2023/06/23 04:10:59;;;;;;;30.30;23.23;;;;;;;-141.97;81.49;47580.59;5038270;28;20239;-81
2023/06/23 04:13:27;;;;;;;31.57;23.87;;;;;;;-141.97;81.37;47513.31;5038356;28;20174;-80
2023/06/23 04:15:56;;;;;;;33.60;23.30;;;;;;;-141.97;81.31;47584.44;5038074;28;20189;-80
2023/06/23 04:18:24;;;;;;;34.10;24.53;;;;;;;-141.97;80.97;47582.50;5033501;28;20178;-80
2023/06/23 04:20:52;;;;;;;33.60;24.37;;;;;;;-141.97;81.51;47561.38;5034858;28;20173;-82
2023/06/23 04:23:19;;;;;;;33.00;23.43;;;;;;;-141.97;82.50;47497.94;5035467;28;20162;-79
2023/06/23 04:25:48;;;;;;;32.53;24.37;;;;;;;-141.97;82.04;47578.66;5033367;28;20878;-79
2023/06/23 04:28:17;;;;;;;32.93;24.13;;;;;;;-141.97;81.56;47567.13;5034121;28;20197;-81
2023/06/23 04:30:44;;;;;;;30.97;23.37;;;;;;;-141.97;80.26;47594.03;5031470;28;20207;-81
2023/06/23 04:33:10;;;;;;;31.10;22.67;;;;;;;-141.97;78.97;47595.97;5032063;28;20200;-80
2023/06/23 04:35:36;;;;;;;29.03;22.60;;;;;;;-141.97;77.36;47526.75;5034156;28;20623;-81
2023/06/23 04:38:14;;;;;;;28.90;21.90;;;;;;;-141.97;76.69;47570.97;5034070;28;20278;-80
2023/06/23 04:40:56;;;;;;;29.33;22.27;;;;;;;-141.97;75.76;47549.84;5034339;28;20154;-80
2023/06/23 04:43:28;;;;;;;30.13;21.70;;;;;;;-141.97;74.89;47526.75;5033792;28;20189;-78
2023/06/23 04:45:58;;;;;;;33.10;21.63;;;;;;;-141.97;74.27;47544.06;5032285;28;20181;-80
2023/06/23 04:48:35;;;;;;;29.20;22.40;;;;;;;-141.97;75.28;47542.16;5032854;28;20165;-81
2023/06/23 04:51:05;;;;;;;33.63;22.67;;;;;;;-141.97;75.90;47526.75;5033355;28;20185;-80
2023/06/23 04:53:37;;;;;;;31.90;22.17;;;;;;;-141.97;76.12;47582.50;5033426;28;20155;-79
2023/06/23 04:56:05;;;;;;;34.30;24.43;;;;;;;-141.97;75.84;47540.22;5034202;28;20527;-79
2023/06/23 04:58:37;;;;;;;33.20;23.20;;;;;;;-141.97;76.15;47586.34;5032875;28;20170;-80
2023/06/23 05:01:06;;;;;;;27.63;21.20;;;;;;;-141.97;75.01;47442.19;5033588;28;20170;-80
2023/06/23 05:03:33;;;;;;;27.13;20.40;;;;;;;-141.97;74.08;47580.59;5032785;28;20579;-79
2023/06/23 05:06:00;;;;;;;29.07;21.83;;;;;;;-141.97;73.48;47594.03;5033486;28;20224;-80
2023/06/23 05:08:27;;;;;;;26.33;19.90;;;;;;;-141.97;72.52;47546.00;5007292;28;20221;-80
2023/06/23 05:10:58;;;;;;;26.40;20.70;;;;;;;-141.97;71.13;47511.38;5033468;28;20197;-80
2023/06/23 05:13:28;;;;;;;25.93;21.00;;;;;;;-141.97;71.23;47534.44;5033510;28;20166;-80
2023/06/23 05:15:54;;;;;;;27.00;19.83;;;;;;;-141.97;70.82;47536.38;5033700;28;20192;-80
2023/06/23 05:18:22;;;;;;;31.40;22.33;;;;;;;-141.97;71.65;47542.16;5032930;28;20169;-80
2023/06/23 05:20:49;;;;;;;30.77;22.13;;;;;;;-141.97;70.54;47557.53;5033562;28;20170;-80
2023/06/23 05:23:17;;;;;;;24.47;19.00;;;;;;;-141.97;69.14;47624.78;5033660;28;20201;-79
2023/06/23 05:25:45;;;;;;;25.73;18.60;;;;;;;-141.97;68.36;47705.53;5033477;28;20176;-80
2023/06/23 05:28:12;;;;;;;22.40;17.83;;;;;;;-141.97;67.29;47530.59;5032446;28;20174;-81
2023/06/23 05:30:41;;;;;;;23.10;18.13;;;;;;;-141.97;66.99;47530.59;5033801;28;20247;-78
2023/06/23 05:33:09;;;;;;;21.60;18.37;;;;;;;-141.97;67.21;47720.91;5032812;28;20618;-80
2023/06/23 05:35:37;;;;;;;22.83;17.97;;;;;;;-141.97;65.61;47546.00;5033699;28;20583;-81
2023/06/23 05:38:05;;;;;;;27.50;19.97;;;;;;;-141.97;66.31;47561.38;5032966;28;20204;-80
2023/06/23 05:40:30;;;;;;;25.30;19.73;;;;;;;-141.97;65.59;47636.31;5033520;28;20158;-81
2023/06/23 05:42:56;;;;;;;23.37;18.10;;;;;;;-141.97;64.53;47488.31;5032005;28;20177;-82
2023/06/23 05:45:22;;;;;;;21.73;18.07;;;;;;;-141.97;63.81;47546.00;5028561;28;20198;-81
2023/06/23 05:48:27;;;;;;;26.40;18.03;;;;;;;-141.97;63.79;47547.91;5032540;28;20253;-81
2023/06/23 05:50:55;;;;;;;22.67;18.57;;;;;;;-141.97;63.07;47534.44;5039765;28;20316;-81
2023/06/23 05:53:23;;;;;;;25.47;18.47;;;;;;;-141.97;62.03;47449.88;5032829;28;20197;-81
2023/06/23 05:56:24;;;;;;;25.23;18.10;;;;;;;-141.97;61.76;47515.22;5030636;28;20571;-81
2023/06/23 05:58:56;;;;;;;22.98;18.05;;;;;;;-141.97;61.49;47549.84;4994479;28;20249;-81
2023/06/23 06:01:24;;;;;;;23.33;19.27;;;;;;;-141.97;61.41;47536.38;5018793;28;20268;-80
2023/06/23 06:04:12;;;;;;;22.67;17.38;;;;;;;-141.97;60.70;47661.31;5010379;28;20192;-78
2023/06/23 06:06:40;;;;;;;20.85;17.35;;;;;;;-141.97;61.41;47645.94;5000803;28;20236;-79
2023/06/23 06:09:09;;;;;;;22.88;17.33;;;;;;;-141.97;60.89;47515.22;5009344;28;20296;-81
2023/06/23 06:11:37;;;;;;;23.52;18.17;;;;;;;-141.97;60.68;47615.19;5012221;28;20678;-79
2023/06/23 06:14:04;;;;;;;21.42;17.75;;;;;;;-141.97;59.88;47488.31;5011913;28;20251;-77
2023/06/23 06:16:31;;;;;;;25.15;18.35;;;;;;;-141.97;59.31;47415.28;5009769;28;20167;-80
2023/06/23 06:18:59;;;;;;;23.27;18.25;;;;;;;-141.97;60.38;47497.94;5005650;28;20276;-80
2023/06/23 06:21:27;;;;;;;20.15;17.23;;;;;;;-141.97;60.14;47436.44;5005093;28;20198;-80
2023/06/23 06:23:54;;;;;;;23.20;18.45;;;;;;;-141.97;59.43;47497.94;5005447;28;20193;-81
2023/06/23 06:26:20;;;;;;;22.35;17.85;;;;;;;-141.97;58.98;47478.72;5006211;28;20179;-81
2023/06/23 06:28:50;;;;;;;30.52;18.25;;;;;;;-141.97;57.78;47490.25;5004996;28;20276;-80
2023/06/23 06:31:18;;;;;;;21.95;17.92;;;;;;;-141.97;57.45;47509.47;5005694;28;20189;-80
2023/06/23 06:33:48;;;;;;;20.27;17.50;;;;;;;-141.97;57.40;47407.59;5010079;28;20205;-82
2023/06/23 06:36:15;;;;;;;22.42;17.95;;;;;;;-141.97;57.71;47580.59;5028034;28;20262;-81
2023/06/23 06:38:42;;;;;;;23.95;17.67;;;;;;;-141.97;57.66;47509.47;5027286;28;20184;-81
2023/06/23 06:41:08;;;;;;;23.63;18.75;;;;;;;-141.97;57.74;47499.84;5027373;28;20543;-80
2023/06/23 06:43:35;;;;;;;24.73;17.95;;;;;;;-141.97;57.19;47768.94;5029153;28;20251;-80
2023/06/23 06:46:01;;;;;;;22.05;18.30;;;;;;;-141.97;56.34;47459.50;5028412;28;20185;-80
2023/06/23 06:48:29;;;;;;;22.48;17.40;;;;;;;-141.97;55.84;47467.19;5026741;28;20274;-80
2023/06/23 06:50:55;;;;;;;22.95;17.92;;;;;;;-141.97;55.77;47507.53;5024881;28;20748;-80
2023/06/23 06:53:21;;;;;;;22.17;17.95;;;;;;;-141.97;55.58;47738.19;5025657;28;20226;-79
2023/06/23 06:55:48;;;;;;;24.38;18.77;;;;;;;-141.97;55.39;47453.72;5027606;28;20211;-80
2023/06/23 06:58:16;;;;;;;24.55;17.35;;;;;;;-141.97;55.00;47472.94;5027698;28;20208;-81
2023/06/23 07:00:43;;;;;;;27.20;18.63;;;;;;;-141.97;54.74;47469.09;5028346;28;20265;-81
2023/06/23 07:03:11;;;;;;;22.50;18.55;;;;;;;-141.97;54.60;47334.56;5026518;28;20232;-81
2023/06/23 07:05:36;;;;;;;22.95;18.63;;;;;;;-141.97;54.31;47467.19;5025925;28;20185;-81
2023/06/23 07:08:03;;;;;;;38.08;19.70;;;;;;;-141.97;53.71;47457.56;5017704;28;20272;-80
2023/06/23 07:10:28;;;;;;;22.80;18.48;;;;;;;-141.97;52.62;47430.66;5027574;28;20355;-80
2023/06/23 07:12:54;;;;;;;26.15;18.10;;;;;;;-141.97;53.66;47438.34;5026965;28;20265;-80
2023/06/23 07:15:19;;;;;;;24.67;18.75;;;;;;;-141.97;54.34;47467.19;5027424;28;20606;-78
2023/06/23 07:17:45;;;;;;;25.05;18.48;;;;;;;-141.97;53.97;47442.19;5026566;28;20180;-81
2023/06/23 07:20:10;;;;;;;22.25;17.52;;;;;;;-141.97;53.59;47453.72;5027625;28;20247;-81
2023/06/23 07:22:36;;;;;;;20.00;17.30;;;;;;;-141.97;53.30;47428.75;5041887;28;20178;-80
2023/06/23 07:25:01;;;;;;;23.20;19.15;;;;;;;-141.97;52.56;47399.91;5027475;28;20599;-83
2023/06/23 07:27:27;;;;;;;22.70;17.42;;;;;;;-141.97;51.76;47459.50;5026689;28;20176;-80
2023/06/23 07:29:52;;;;;;;21.48;16.95;;;;;;;-141.97;51.06;47403.75;5027312;28;20559;-81
2023/06/23 07:32:18;;;;;;;22.83;17.65;;;;;;;-141.97;50.26;47413.38;5027890;28;20178;-81
2023/06/23 07:34:43;;;;;;;21.90;17.52;;;;;;;-141.97;50.39;47434.50;5026909;28;20181;-82
2023/06/23 07:37:09;;;;;;;22.83;17.70;;;;;;;-141.97;49.94;47401.84;5027387;28;20233;-81
2023/06/23 07:39:35;;;;;;;21.40;17.83;;;;;;;-141.97;50.00;47421.06;5026833;28;20331;-81
2023/06/23 07:42:01;;;;;;;23.08;17.85;;;;;;;-141.97;50.10;47426.81;5029961;28;20192;-80
2023/06/23 07:44:26;;;;;;;203.60;35.10;;;;;;;-141.97;50.23;47440.28;5030963;28;20192;-80
2023/06/23 07:46:51;;;;;;;43.35;20.90;;;;;;;-141.97;50.71;47438.34;5030751;28;20222;-80
2023/06/23 07:49:17;;;;;;;31.92;20.00;;;;;;;-141.97;50.35;47430.66;5030107;28;20193;-81
2023/06/23 07:51:42;;;;;;;426.00;60.10;;;;;;;-141.97;50.15;47446.03;5031715;28;20174;-81
2023/06/23 07:54:08;;;;;;;44.10;20.85;;;;;;;-141.97;50.19;47595.97;5029229;28;20334;-82
2023/06/23 07:56:33;;;;;;;54.83;21.73;;;;;;;-141.97;50.02;47432.59;5025928;28;20181;-81
2023/06/23 07:58:59;;;;;;;58.78;22.35;;;;;;;-141.97;49.22;47663.22;5022168;28;20204;-82
2023/06/23 08:01:24;;;;;;;19.67;17.50;;;;;;;-141.97;48.67;47434.50;5034921;28;20274;-81
2023/06/23 08:03:50;;;;;;;20.83;17.02;;;;;;;-141.97;48.04;47622.88;5021937;28;20193;-80
2023/06/23 08:06:22;;;;;;;21.35;16.55;;;;;;;-141.97;46.67;47405.69;5013965;28;20706;-81
2023/06/23 08:08:48;;;;;;;25.70;17.85;;;;;;;-141.97;46.53;47363.41;5005794;28;20231;-82
2023/06/23 08:11:13;;;;;;;21.75;17.17;;;;;;;-141.97;46.85;47392.22;5029416;28;20292;-82
2023/06/23 08:13:39;;;;;;;21.35;17.05;;;;;;;-141.97;47.49;47376.84;5027947;28;20192;-82
2023/06/23 08:16:11;;;;;;;23.77;17.85;;;;;;;-141.97;46.82;47367.25;5033349;28;20177;-82
2023/06/23 08:18:36;;;;;;;22.42;17.73;;;;;;;-141.97;46.25;47365.31;5033305;28;20189;-81
2023/06/23 08:21:05;;;;;;;20.17;17.17;;;;;;;-141.97;46.16;47292.28;5034898;28;20184;-80
2023/06/23 08:23:30;;;;;;;20.10;16.40;;;;;;;-141.97;45.72;47694.00;5039721;28;20636;-81
2023/06/23 08:25:56;;;;;;;20.67;17.35;;;;;;;-141.97;45.81;47492.16;5037280;28;20200;-81
2023/06/23 08:28:21;;;;;;;21.13;17.13;;;;;;;-141.97;45.61;47386.47;5031621;28;20200;-81
2023/06/23 08:30:47;;;;;;;21.92;17.23;;;;;;;-141.97;44.79;47361.47;5014079;28;20218;-80
2023/06/23 08:33:12;;;;;;;20.65;17.60;;;;;;;-141.97;44.88;47422.97;5033909;28;20573;-79
2023/06/23 08:35:38;;;;;;;21.20;16.25;;;;;;;-141.97;45.17;47401.84;5034752;28;20174;-80
2023/06/23 08:38:05;;;;;;;24.85;18.13;;;;;;;-141.97;45.06;47359.56;5034089;28;20201;-81
2023/06/23 08:40:30;;;;;;;25.15;17.30;;;;;;;-141.97;45.45;47232.72;5032174;28;20296;-81
2023/06/23 08:42:56;;;;;;;23.67;18.55;;;;;;;-141.97;45.64;47384.53;5033721;28;20194;-81
2023/06/23 08:45:24;;;;;;;24.95;19.02;;;;;;;-141.97;45.45;47384.53;5032976;28;20532;-81
2023/06/23 08:47:52;;;;;;;23.80;18.55;;;;;;;-141.97;46.53;47373.00;5033677;28;20178;-81
2023/06/23 08:50:20;;;;;;;21.95;17.60;;;;;;;-141.97;46.03;47653.63;5032283;28;20259;-80
2023/06/23 08:52:46;;;;;;;21.08;18.70;;;;;;;-141.97;46.47;47405.69;5032502;28;20178;-81
2023/06/23 08:55:12;;;;;;;23.52;18.52;;;;;;;-141.97;46.38;47396.06;5032594;28;20169;-81
2023/06/23 08:57:39;;;;;;;20.35;18.10;;;;;;;-141.97;46.85;47367.25;5035189;28;20166;-82
2023/06/23 09:00:06;;;;;;;24.73;17.70;;;;;;;-141.97;45.51;47394.16;5033313;28;20174;-79
2023/06/23 09:02:31;;;;;;;23.85;19.00;;;;;;;-141.97;45.78;47303.81;5028862;28;20209;-82
2023/06/23 09:04:57;;;;;;;24.55;19.17;;;;;;;-141.97;45.30;47321.13;5013233;28;20170;-81
2023/06/23 09:07:24;;;;;;;22.65;18.35;;;;;;;-141.97;45.71;47346.09;5022863;28;20666;-81
2023/06/23 09:09:50;;;;;;;23.23;19.88;;;;;;;-141.97;45.55;47328.81;5033569;28;20650;-82
2023/06/23 09:12:20;;;;;;;22.65;18.27;;;;;;;-141.97;45.28;47394.16;5033736;28;20170;-81
2023/06/23 09:14:46;;;;;;;24.52;18.80;;;;;;;-141.97;45.22;47353.78;5033463;28;20257;-80
2023/06/23 09:17:13;;;;;;;21.05;18.40;;;;;;;-141.97;45.00;47346.09;5032558;28;20206;-80
2023/06/23 09:19:42;;;;;;;22.13;17.60;;;;;;;-141.97;44.63;47213.50;5034019;28;20177;-81
2023/06/23 09:22:12;;;;;;;20.90;18.25;;;;;;;-141.97;45.12;47403.75;5033794;28;20174;-81
2023/06/23 09:24:43;;;;;;;19.55;16.77;;;;;;;-141.97;45.52;47396.06;5033040;28;20178;-81
2023/06/23 09:27:09;;;;;;;20.25;16.42;;;;;;;-141.97;44.30;47461.41;5032823;28;20198;-81
2023/06/23 09:29:37;;;;;;;19.67;17.08;;;;;;;-141.97;44.11;47373.00;5033284;28;20770;-81
2023/06/23 09:32:03;;;;;;;21.10;17.85;;;;;;;-141.97;43.93;47298.06;5032879;28;20154;-82
2023/06/23 09:34:33;;;;;;;18.83;16.83;;;;;;;-141.97;43.66;47313.44;5032327;28;20173;-79
2023/06/23 09:37:13;;;;;;;18.63;16.65;;;;;;;-141.97;44.31;47363.41;5029987;28;20186;-80
2023/06/23 09:39:44;;;;;;;21.58;16.42;;;;;;;-141.97;44.83;47382.63;5032389;28;20163;-80
2023/06/23 09:42:12;;;;;;;20.70;17.15;;;;;;;-141.97;44.01;47359.56;5031864;28;20169;-82
2023/06/23 09:44:40;;;;;;;17.50;15.50;;;;;;;-141.97;43.14;47349.94;5031344;28;20196;-80
2023/06/23 09:47:07;;;;;;;17.40;15.45;;;;;;;-141.97;43.93;47338.41;5031762;28;20170;-80
2023/06/23 09:49:43;;;;;;;17.33;15.35;;;;;;;-141.97;43.58;47357.63;5032651;28;20633;-80
2023/06/23 09:52:12;;;;;;;17.75;15.43;;;;;;;-141.97;43.35;47338.41;5032654;28;20173;-81
2023/06/23 09:54:41;;;;;;;17.98;16.13;;;;;;;-141.97;43.33;47357.63;5032165;28;20622;-81
2023/06/23 09:57:15;;;;;;;19.95;15.55;;;;;;;-141.97;43.38;47659.38;5032181;28;20247;-80
2023/06/23 09:59:44;;;;;;;17.80;15.52;;;;;;;-141.97;42.88;47323.03;5031404;28;20539;-81
2023/06/23 10:02:22;;;;;;;18.02;15.18;;;;;;;-141.97;42.34;47357.63;5030757;28;20606;-80
2023/06/23 10:04:49;;;;;;;16.73;15.00;;;;;;;-141.97;43.45;47200.03;5032276;28;20248;-81
2023/06/23 10:07:25;;;;;;;16.67;14.70;;;;;;;-141.97;43.00;47369.16;5023571;28;20337;-82
2023/06/23 10:09:53;;;;;;;17.65;15.80;;;;;;;-141.97;42.76;47355.72;5033208;28;20224;-81
2023/06/23 10:12:25;;;;;;;16.15;14.45;;;;;;;-141.97;42.29;47373.00;5017450;28;20244;-82
2023/06/23 10:14:51;;;;;;;15.48;13.98;;;;;;;-141.97;42.22;47342.25;5013547;28;20201;-81
2023/06/23 10:17:17;;;;;;;15.40;13.77;;;;;;;-141.97;42.46;47369.16;5016751;28;20493;-81
2023/06/23 10:19:45;;;;;;;16.55;14.85;;;;;;;-141.97;43.30;47315.34;5014006;28;20158;-82
2023/06/23 10:22:14;;;;;;;18.58;15.20;;;;;;;-141.97;43.33;47367.25;5012183;28;20162;-82
2023/06/23 10:24:40;;;;;;;15.93;13.98;;;;;;;-141.97;43.29;47380.69;5013091;28;20309;-80
2023/06/23 10:27:09;;;;;;;17.15;14.43;;;;;;;-141.97;42.51;47365.31;5024512;28;20257;-80
2023/06/23 10:29:38;;;;;;;15.80;13.93;;;;;;;-141.97;42.83;47340.34;5032298;28;20502;-81
2023/06/23 10:32:07;;;;;;;16.50;14.80;;;;;;;-141.97;43.63;47376.84;5032014;28;20158;-81
2023/06/23 10:34:33;;;;;;;16.42;14.45;;;;;;;-141.97;42.25;47553.69;5032007;28;20178;-79
2023/06/23 10:37:03;;;;;;;17.38;13.85;;;;;;;-141.97;42.63;47603.66;5031840;28;20243;-80
2023/06/23 10:39:34;;;;;;;15.85;13.75;;;;;;;-141.97;42.41;47536.38;5031389;28;20162;-81
2023/06/23 10:42:00;;;;;;;18.42;15.32;;;;;;;-141.97;41.91;47219.25;5031977;28;20224;-81
2023/06/23 10:44:27;;;;;;;15.40;13.60;;;;;;;-141.97;41.66;47142.38;5031382;28;20174;-82
2023/06/23 10:46:53;;;;;;;14.52;13.02;;;;;;;-141.97;41.52;47194.28;5033815;28;20161;-82
2023/06/23 10:49:19;;;;;;;17.10;15.10;;;;;;;-141.97;42.53;47353.78;5033038;28;20658;-82
2023/06/23 10:51:44;;;;;;;19.73;15.35;;;;;;;-141.97;43.63;47336.50;5032580;28;20256;-82
2023/06/23 10:54:10;;;;;;;14.75;13.18;;;;;;;-141.97;42.63;47509.47;5032043;28;20228;-82
2023/06/23 10:56:41;;;;;;;16.65;13.30;;;;;;;-141.97;41.90;47342.25;5032374;28;20162;-81
2023/06/23 10:59:18;;;;;;;13.63;12.23;;;;;;;-141.97;40.94;47334.56;5031694;28;20181;-80
2023/06/23 11:01:59;;;;;;;14.88;13.13;;;;;;;-141.97;40.83;47323.03;5031734;28;20176;-81
2023/06/23 11:04:36;;;;;;;13.85;12.55;;;;;;;-141.97;41.73;47334.56;5032671;28;20173;-80
2023/06/23 11:07:02;;;;;;;13.32;12.02;;;;;;;-141.97;40.24;47371.09;5021556;28;20193;-80
2023/06/23 11:10:04;;;;;;;14.25;12.25;;;;;;;-141.97;40.17;47353.78;5010922;28;20218;-80